Watford Cy, North Dakota
Current Conditions -  °F | °C
As of 1:52 AM on Sunday 26 Oct 2014 (Local Time) from KISN Reporting Station
Clear Clear  
Wind Chill: 53°   Ceiling: Unl
Heat Index: 53°   Visibility: 10mi
Dew Point: 30°   Wind: 10mph
Humidity: 41%   Direction: 130°SE
Pressure: 29.68"   Gusts: NA
Location:  47.8267°N, 103.206°W
Report Text: KISN 260652Z AUTO 13009KT 10SM CLR 12/M01 A2968 RMK AO2 SLP051 T01171011
Loading
Personal Weather Stations






























Interactive Weather Map
Tropical Storm Tracking
New forecast layout! Learn more

10-Day Weather Forecast

Advertisements
Track Severe Weather on mobile